createdAt,value
2023-04-18T00:01:32.455Z,36.50
2023-04-18T00:03:59.681Z,38.10
2023-04-18T00:06:26.802Z,52.17
2023-04-18T00:08:53.653Z,65.22
2023-04-18T00:11:20.690Z,72.30
2023-04-18T00:13:47.618Z,75.43
2023-04-18T00:16:14.598Z,73.93
2023-04-18T00:18:41.433Z,82.20
2023-04-18T00:21:08.768Z,70.75
2023-04-18T00:23:36.260Z,57.00
2023-04-18T00:26:03.195Z,51.00
2023-04-18T00:28:30.266Z,45.78
2023-04-18T00:30:57.612Z,47.75
2023-04-18T00:33:24.704Z,45.38
2023-04-18T00:35:51.598Z,53.60
2023-04-18T00:38:22.335Z,46.72
2023-04-18T00:40:49.928Z,51.95
2023-04-18T00:43:17.212Z,55.47
2023-04-18T00:45:44.543Z,54.45
2023-04-18T00:48:12.544Z,50.67
2023-04-18T00:50:41.742Z,51.15
2023-04-18T00:53:10.778Z,51.72
2023-04-18T00:55:38.909Z,42.13
2023-04-18T00:58:06.417Z,49.83
2023-04-18T01:00:33.163Z,39.47
2023-04-18T01:03:00.221Z,48.65
2023-04-18T01:05:29.207Z,46.58
2023-04-18T01:07:58.747Z,57.20
2023-04-18T01:10:26.235Z,55.08
2023-04-18T01:13:11.213Z,57.25
2023-04-18T01:15:40.717Z,65.57
2023-04-18T01:18:08.937Z,98.85
2023-04-18T01:20:46.755Z,94.55
2023-04-18T01:23:14.442Z,121.00
2023-04-18T01:25:41.696Z,103.22
2023-04-18T01:28:08.712Z,76.40
2023-04-18T01:30:35.779Z,111.75
2023-04-18T01:33:04.285Z,142.50
2023-04-18T01:35:31.995Z,153.82
2023-04-18T01:37:59.828Z,119.85
2023-04-18T01:40:27.999Z,161.68
2023-04-18T01:42:55.154Z,101.32
2023-04-18T01:45:22.690Z,115.07
2023-04-18T01:47:49.855Z,84.53
2023-04-18T01:50:16.789Z,89.88
2023-04-18T01:52:43.643Z,100.20
2023-04-18T01:55:10.669Z,88.15
2023-04-18T01:57:37.901Z,76.88
2023-04-18T02:00:06.502Z,82.45
2023-04-18T02:02:33.577Z,75.30
2023-04-18T02:05:00.458Z,80.18
2023-04-18T02:07:27.204Z,73.93
2023-04-18T02:13:31.224Z,76.60
2023-04-18T02:15:58.014Z,80.07
2023-04-18T02:18:25.472Z,79.15
2023-04-18T02:20:52.779Z,84.85
2023-04-18T02:23:19.648Z,71.65
2023-04-18T02:25:46.613Z,80.07
2023-04-18T02:28:13.429Z,74.38
2023-04-18T02:30:40.295Z,76.78
2023-04-18T02:33:07.149Z,75.70
2023-04-18T02:35:34.118Z,77.57
2023-04-18T02:38:00.964Z,82.15
2023-04-18T02:40:27.793Z,87.22
2023-04-18T02:42:54.581Z,79.25
2023-04-18T02:45:21.520Z,91.65
2023-04-18T02:47:55.466Z,87.35
2023-04-18T02:52:50.981Z,69.25
2023-04-18T02:55:17.994Z,75.30
2023-04-18T02:57:44.750Z,86.25
2023-04-18T03:00:13.513Z,75.88
2023-04-18T03:02:40.640Z,78.05
2023-04-18T03:05:07.851Z,78.38
2023-04-18T03:07:34.590Z,85.18
2023-04-18T03:10:01.337Z,78.78
2023-04-18T03:12:28.103Z,84.13
2023-04-18T03:14:54.910Z,73.50
2023-04-18T03:17:21.706Z,68.15
2023-04-18T03:19:48.640Z,71.93
2023-04-18T03:22:16.390Z,72.50
2023-04-18T03:24:43.231Z,74.28
2023-04-18T03:27:10.076Z,82.60
2023-04-18T03:29:37.020Z,71.28
2023-04-18T03:32:04.022Z,73.50
2023-04-18T03:34:30.813Z,78.03
2023-04-18T03:36:57.626Z,65.65
2023-04-18T03:39:24.323Z,71.38
2023-04-18T03:41:52.149Z,83.18
2023-04-18T03:44:19.046Z,70.75
2023-04-18T03:46:45.966Z,71.30
2023-04-18T03:49:12.901Z,71.80
2023-04-18T03:51:47.275Z,79.75
2023-04-18T03:54:17.402Z,70.00
2023-04-18T03:56:45.120Z,73.30
2023-04-18T03:59:12.341Z,63.88
2023-04-18T04:01:39.391Z,73.85
2023-04-18T04:04:06.574Z,71.55
2023-04-18T04:06:33.543Z,78.28
2023-04-18T04:09:00.751Z,65.88
2023-04-18T04:11:27.645Z,65.68
2023-04-18T04:13:54.417Z,69.45
2023-04-18T04:16:21.396Z,71.15
2023-04-18T04:18:48.250Z,67.18
2023-04-18T04:21:15.895Z,68.57
2023-04-18T04:23:42.836Z,69.40
2023-04-18T04:26:10.032Z,67.90
2023-04-18T04:28:36.919Z,70.22
2023-04-18T04:31:08.181Z,65.82
2023-04-18T04:33:35.751Z,66.00
2023-04-18T04:36:02.512Z,92.68
2023-04-18T04:38:30.923Z,66.63
2023-04-18T04:40:58.399Z,69.13
2023-04-18T04:43:25.979Z,58.20
2023-04-18T04:45:53.070Z,68.35
2023-04-18T04:48:21.901Z,54.50
2023-04-18T04:50:56.210Z,71.45
2023-04-18T04:53:24.275Z,56.72
2023-04-18T04:55:51.913Z,59.85
2023-04-18T04:58:19.311Z,62.00
2023-04-18T05:00:46.204Z,65.78
2023-04-18T05:03:13.066Z,55.63
2023-04-18T05:05:40.039Z,48.22
2023-04-18T05:08:06.877Z,56.50
2023-04-18T05:10:36.992Z,50.20
2023-04-18T05:13:04.460Z,54.15
2023-04-18T05:15:31.862Z,59.67
2023-04-18T05:17:58.840Z,64.20
2023-04-18T05:20:26.036Z,51.03
2023-04-18T05:22:52.803Z,56.22
2023-04-18T05:25:19.999Z,49.22
2023-04-18T05:27:47.166Z,44.60
2023-04-18T05:30:14.565Z,47.45
2023-04-18T05:32:41.536Z,46.08
2023-04-18T05:35:08.803Z,52.72
2023-04-18T05:37:36.134Z,43.85
2023-04-18T05:40:05.408Z,43.15
2023-04-18T05:42:32.450Z,40.78
2023-04-18T05:44:59.280Z,46.50
2023-04-18T05:47:28.348Z,39.22
2023-04-18T05:49:55.675Z,43.60
2023-04-18T05:52:22.694Z,42.00
2023-04-18T05:54:49.461Z,42.20
2023-04-18T05:57:16.680Z,50.58
2023-04-18T05:59:43.552Z,38.42
2023-04-18T06:02:13.568Z,34.47
2023-04-18T06:04:42.030Z,37.75
2023-04-18T06:07:09.808Z,38.22
2023-04-18T06:09:36.795Z,50.28
2023-04-18T06:12:04.097Z,32.38
2023-04-18T06:14:30.981Z,38.40
2023-04-18T06:16:58.032Z,36.55
2023-04-18T06:19:24.836Z,36.25
2023-04-18T06:21:52.628Z,34.50
2023-04-18T06:24:19.473Z,28.83
2023-04-18T06:27:30.460Z,39.97
2023-04-18T06:29:58.882Z,41.58
2023-04-18T06:32:26.095Z,31.27
2023-04-18T06:34:53.764Z,42.38
2023-04-18T06:37:21.106Z,32.47
2023-04-18T06:39:48.015Z,42.38
2023-04-18T06:42:14.930Z,25.88
2023-04-18T06:44:43.217Z,26.70
2023-04-18T06:47:11.063Z,28.77
2023-04-18T06:49:37.831Z,34.42
2023-04-18T06:52:04.706Z,33.45
2023-04-18T06:54:33.343Z,30.65
2023-04-18T06:57:00.559Z,32.15
2023-04-18T06:59:27.568Z,27.60
2023-04-18T07:01:54.585Z,29.40
2023-04-18T07:04:23.006Z,30.10
2023-04-18T07:06:51.693Z,31.92
2023-04-18T07:09:19.676Z,34.70
2023-04-18T07:11:49.408Z,33.72
2023-04-18T07:14:17.155Z,29.20
2023-04-18T07:16:44.080Z,29.40
2023-04-18T07:19:10.853Z,32.47
2023-04-18T07:21:38.727Z,34.85
2023-04-18T07:24:47.796Z,38.75
2023-04-18T07:27:15.270Z,31.40
2023-04-18T07:29:42.080Z,28.85
2023-04-18T07:32:12.289Z,24.95
2023-04-18T07:34:40.246Z,28.90
2023-04-18T07:37:07.302Z,30.67
2023-04-18T07:39:36.076Z,29.83
2023-04-18T07:42:06.397Z,40.15
2023-04-18T07:44:36.239Z,34.45
2023-04-18T07:47:03.868Z,37.75
2023-04-18T07:49:30.662Z,28.60
2023-04-18T07:51:57.805Z,31.05
2023-04-18T07:54:24.628Z,32.58
2023-04-18T07:56:52.218Z,32.30
2023-04-18T07:59:21.677Z,26.10
2023-04-18T08:01:48.553Z,35.80
2023-04-18T08:04:15.814Z,28.48
2023-04-18T08:06:42.753Z,22.02
2023-04-18T08:09:09.570Z,29.23
2023-04-18T08:11:36.353Z,26.15
2023-04-18T08:14:03.289Z,22.48
2023-04-18T08:16:30.123Z,26.52
2023-04-18T08:18:56.937Z,25.13
2023-04-18T08:21:23.934Z,29.15
2023-04-18T08:23:50.746Z,27.35
2023-04-18T08:26:17.721Z,27.08
2023-04-18T08:28:46.316Z,32.65
2023-04-18T08:31:15.059Z,27.02
2023-04-18T08:33:42.220Z,24.20
2023-04-18T08:36:09.578Z,30.85
2023-04-18T08:38:36.379Z,25.38
2023-04-18T08:41:03.179Z,25.40
2023-04-18T08:43:31.322Z,25.08
2023-04-18T08:45:59.900Z,25.23
2023-04-18T08:48:29.934Z,35.88
2023-04-18T08:50:58.703Z,22.77
2023-04-18T08:53:26.844Z,29.85
2023-04-18T08:56:02.818Z,22.90
2023-04-18T08:58:33.755Z,29.08
2023-04-18T09:01:05.322Z,29.20
2023-04-18T09:03:43.114Z,24.27
2023-04-18T09:06:19.332Z,30.20
2023-04-18T09:08:58.680Z,26.23
2023-04-18T09:11:31.699Z,21.63
2023-04-18T09:14:02.308Z,23.42
2023-04-18T09:16:44.449Z,23.75
2023-04-18T09:22:04.719Z,24.52
2023-04-18T09:24:34.292Z,29.35
2023-04-18T09:27:01.258Z,24.42
2023-04-18T09:29:53.800Z,21.35
2023-04-18T09:32:29.653Z,25.85
2023-04-18T09:35:06.405Z,20.20
2023-04-18T09:37:33.428Z,26.25
2023-04-18T09:40:00.369Z,24.98
2023-04-18T09:42:28.880Z,23.85
2023-04-18T09:45:07.722Z,26.23
2023-04-18T09:47:36.403Z,23.33
2023-04-18T09:50:04.898Z,26.90
2023-04-18T09:52:35.904Z,36.30
2023-04-18T09:55:07.927Z,24.90
2023-04-18T09:57:35.929Z,26.38
2023-04-18T10:00:08.749Z,24.73
2023-04-18T10:02:49.034Z,21.98
2023-04-18T10:05:18.829Z,20.40
2023-04-18T10:07:49.783Z,25.67
2023-04-18T10:10:17.795Z,21.83
2023-04-18T10:12:47.843Z,23.55
2023-04-18T10:16:14.099Z,20.75
2023-04-18T10:18:43.240Z,25.40
2023-04-18T10:21:11.572Z,20.33
2023-04-18T10:23:39.702Z,26.08
2023-04-18T10:26:10.906Z,20.73
2023-04-18T10:28:57.258Z,20.35
2023-04-18T10:31:28.464Z,19.05
2023-04-18T10:36:28.578Z,21.20
2023-04-18T10:39:05.801Z,19.98
2023-04-18T10:41:34.283Z,20.08
2023-04-18T10:44:12.847Z,17.27
2023-04-18T10:47:09.936Z,16.45
2023-04-18T10:49:37.159Z,16.98
2023-04-18T10:52:06.010Z,18.35
2023-04-18T10:54:38.881Z,25.77
2023-04-18T10:57:08.623Z,23.60
2023-04-18T10:59:43.155Z,20.92
2023-04-18T11:02:30.346Z,21.20
2023-04-18T11:05:01.775Z,18.88
2023-04-18T11:07:38.999Z,16.92
2023-04-18T11:10:07.756Z,15.77
2023-04-18T11:12:39.999Z,14.40
2023-04-18T11:15:11.424Z,17.17
2023-04-18T11:17:40.249Z,16.35
2023-04-18T11:20:09.398Z,15.55
2023-04-18T11:22:53.530Z,13.18
2023-04-18T11:25:24.047Z,11.70
2023-04-18T11:27:57.114Z,14.25
2023-04-18T11:30:23.935Z,12.95
2023-04-18T11:32:51.829Z,12.50
2023-04-18T11:35:19.511Z,16.38
2023-04-18T11:37:46.457Z,12.52
2023-04-18T11:40:14.449Z,9.57
2023-04-18T11:43:31.181Z,12.02
2023-04-18T11:45:59.476Z,10.57
2023-04-18T11:48:40.560Z,11.00
2023-04-18T11:51:08.654Z,16.02
2023-04-18T11:53:36.843Z,12.80
2023-04-18T11:56:04.885Z,14.75
2023-04-18T11:58:36.391Z,12.40
2023-04-18T12:01:24.712Z,10.60
2023-04-18T12:04:05.970Z,9.75
2023-04-18T12:06:56.618Z,11.65
2023-04-18T12:09:24.826Z,8.82
2023-04-18T12:12:02.806Z,12.80
2023-04-18T12:14:30.315Z,9.75
2023-04-18T12:16:57.146Z,13.98
2023-04-18T12:19:28.073Z,7.65
2023-04-18T12:22:00.715Z,8.18
2023-04-18T12:24:29.010Z,12.00
2023-04-18T12:26:57.793Z,8.60
2023-04-18T12:29:25.593Z,5.63
2023-04-18T12:31:52.757Z,10.02
2023-04-18T12:34:19.749Z,12.75
2023-04-18T12:36:46.822Z,7.57
2023-04-18T12:39:13.597Z,7.28
2023-04-18T12:41:40.408Z,4.35
2023-04-18T12:44:07.419Z,26.98
2023-04-18T12:46:34.234Z,5.47
2023-04-18T12:49:01.241Z,6.88
2023-04-18T12:51:28.012Z,8.50
2023-04-18T12:53:54.730Z,10.73
2023-04-18T12:56:21.652Z,4.55
2023-04-18T12:58:49.063Z,5.38
2023-04-18T13:01:16.519Z,3.75
2023-04-18T13:03:43.490Z,7.22
2023-04-18T13:06:10.526Z,4.60
2023-04-18T13:08:38.379Z,4.78
2023-04-18T13:11:05.259Z,5.10
2023-04-18T13:13:33.462Z,8.25
2023-04-18T13:16:01.939Z,11.40
2023-04-18T13:18:28.738Z,3.67
2023-04-18T13:20:55.560Z,4.10
2023-04-18T13:23:22.446Z,5.63
2023-04-18T13:25:49.274Z,4.28
2023-04-18T13:28:16.077Z,4.68
2023-04-18T13:30:43.033Z,4.85
2023-04-18T13:33:10.628Z,2.90
2023-04-18T13:35:37.639Z,7.72
2023-04-18T13:38:04.426Z,4.18
2023-04-18T13:40:33.345Z,4.55
2023-04-18T13:43:00.133Z,6.90
2023-04-18T13:45:27.288Z,5.88
2023-04-18T13:47:54.343Z,5.78
2023-04-18T13:50:21.494Z,6.78
2023-04-18T13:52:49.253Z,10.68
2023-04-18T13:55:16.134Z,6.22
2023-04-18T13:57:42.872Z,7.93
2023-04-18T14:00:13.839Z,5.57
2023-04-18T14:02:41.358Z,9.95
2023-04-18T14:05:10.952Z,6.93
2023-04-18T14:07:38.404Z,8.57
2023-04-18T14:10:59.976Z,7.63
2023-04-18T14:13:27.116Z,6.53
2023-04-18T14:15:54.022Z,8.95
2023-04-18T14:18:21.852Z,5.78
2023-04-18T14:20:48.663Z,6.13
2023-04-18T14:23:16.249Z,5.50
2023-04-18T14:25:43.435Z,11.07
2023-04-18T14:28:11.802Z,10.18
2023-04-18T14:30:39.739Z,3.75
2023-04-18T14:33:07.488Z,5.78
2023-04-18T14:35:34.324Z,7.65
2023-04-18T14:38:01.094Z,4.68
2023-04-18T14:40:27.956Z,6.28
2023-04-18T14:42:54.753Z,6.75
2023-04-18T14:45:22.101Z,4.90
2023-04-18T14:47:48.957Z,5.63
2023-04-18T14:50:15.699Z,7.75
2023-04-18T14:52:42.820Z,6.20
2023-04-18T14:55:09.992Z,7.85
2023-04-18T14:57:37.687Z,8.00
2023-04-18T15:00:08.234Z,6.97
2023-04-18T15:02:35.172Z,7.55
2023-04-18T15:05:02.378Z,6.07
2023-04-18T15:07:29.261Z,8.98
2023-04-18T15:09:56.062Z,7.05
2023-04-18T15:12:22.829Z,8.70
2023-04-18T15:14:49.667Z,6.95
2023-04-18T15:21:00.346Z,15.65
2023-04-18T15:23:27.648Z,8.10
2023-04-18T15:25:54.431Z,6.32
2023-04-18T15:28:21.213Z,7.40
2023-04-18T15:30:48.022Z,10.80
2023-04-18T15:33:15.713Z,8.93
2023-04-18T15:35:42.589Z,14.52
2023-04-18T15:38:09.409Z,9.55
2023-04-18T15:40:36.600Z,7.40
2023-04-18T15:43:04.137Z,8.15
2023-04-18T15:45:31.311Z,11.48
2023-04-18T15:47:58.580Z,13.40
2023-04-18T15:50:26.096Z,12.00
2023-04-18T15:52:52.947Z,12.52
2023-04-18T15:55:19.739Z,7.80
2023-04-18T15:57:46.862Z,11.10
2023-04-18T16:00:20.715Z,9.02
2023-04-18T16:02:47.669Z,10.35
2023-04-18T16:05:15.217Z,10.50
2023-04-18T16:07:42.960Z,14.50
2023-04-18T16:10:11.013Z,8.55
2023-04-18T16:12:38.691Z,10.57
2023-04-18T16:15:08.087Z,9.13
2023-04-18T16:17:35.759Z,10.07
2023-04-18T16:20:03.393Z,12.35
2023-04-18T16:22:36.827Z,20.10
2023-04-18T16:25:04.544Z,14.35
2023-04-18T16:27:31.396Z,23.00
2023-04-18T16:29:58.419Z,16.42
2023-04-18T16:32:25.434Z,13.48
2023-04-18T16:34:52.320Z,14.27
2023-04-18T16:37:19.114Z,17.55
2023-04-18T16:39:45.939Z,7.47
2023-04-18T16:42:15.316Z,15.80
2023-04-18T16:44:42.674Z,8.45
2023-04-18T16:47:09.580Z,14.63
2023-04-18T16:49:37.392Z,8.05
2023-04-18T16:52:04.359Z,12.82
2023-04-18T16:54:31.390Z,7.53
2023-04-18T16:56:58.295Z,7.45
2023-04-18T16:59:25.129Z,12.32
2023-04-18T17:01:51.986Z,7.47
2023-04-18T17:04:19.084Z,15.63
2023-04-18T17:06:46.606Z,7.63
2023-04-18T17:09:14.558Z,10.13
2023-04-18T17:11:42.073Z,8.38
2023-04-18T17:14:09.074Z,9.68
2023-04-18T17:16:40.374Z,4.68
2023-04-18T17:19:07.747Z,12.45
2023-04-18T17:21:35.643Z,9.68
2023-04-18T17:24:07.074Z,12.57
2023-04-18T17:26:35.176Z,8.40
2023-04-18T17:29:04.051Z,10.65
2023-04-18T17:31:31.908Z,15.63
2023-04-18T17:33:59.501Z,7.95
2023-04-18T17:36:26.625Z,7.03
2023-04-18T17:38:53.544Z,8.05
2023-04-18T17:41:21.625Z,8.45
2023-04-18T17:43:50.891Z,12.65
2023-04-18T17:46:17.953Z,14.05
2023-04-18T17:48:44.868Z,5.78
2023-04-18T17:51:12.026Z,8.52
2023-04-18T17:53:38.816Z,8.98
2023-04-18T17:56:06.218Z,8.45
2023-04-18T17:58:33.078Z,7.55
2023-04-18T18:01:01.414Z,8.70
2023-04-18T18:03:29.924Z,6.50
2023-04-18T18:05:56.837Z,7.97
2023-04-18T18:11:58.944Z,11.75
2023-04-18T18:14:31.017Z,6.95
2023-04-18T18:16:57.997Z,6.20
2023-04-18T18:19:24.787Z,9.85
2023-04-18T18:21:51.629Z,8.73
2023-04-18T18:24:18.757Z,15.35
2023-04-18T18:26:45.810Z,9.07
2023-04-18T18:29:12.757Z,6.50
2023-04-18T18:31:40.082Z,6.28
2023-04-18T18:34:06.909Z,9.70
2023-04-18T18:36:36.802Z,6.32
2023-04-18T18:39:03.888Z,12.68
2023-04-18T18:41:31.073Z,7.85
2023-04-18T18:43:57.874Z,6.13
2023-04-18T18:46:24.638Z,8.20
2023-04-18T18:48:52.122Z,7.75
2023-04-18T18:51:19.169Z,11.35
2023-04-18T18:53:46.928Z,7.40
2023-04-18T18:56:13.946Z,9.00
2023-04-18T18:59:19.085Z,7.07
2023-04-18T19:01:47.872Z,5.10
2023-04-18T19:06:56.677Z,5.95
2023-04-18T19:09:27.693Z,5.15
2023-04-18T19:12:00.016Z,9.82
2023-04-18T19:14:28.348Z,7.47
2023-04-18T19:16:56.024Z,4.50
2023-04-18T19:19:22.877Z,5.18
2023-04-18T19:21:50.159Z,6.13
2023-04-18T19:24:17.628Z,6.28
2023-04-18T19:26:44.515Z,7.43
2023-04-18T19:29:14.245Z,7.75
2023-04-18T19:31:43.606Z,6.18
2023-04-18T19:34:11.816Z,10.02
2023-04-18T19:36:38.770Z,9.38
2023-04-18T19:39:05.693Z,6.22
2023-04-18T19:41:32.445Z,7.22
2023-04-18T19:43:59.249Z,9.07
2023-04-18T19:46:26.236Z,13.27
2023-04-18T19:48:53.120Z,8.27
2023-04-18T19:51:19.968Z,6.63
2023-04-18T19:53:46.788Z,11.50
2023-04-18T19:56:14.861Z,8.10
2023-04-18T19:58:46.725Z,11.57
2023-04-18T20:01:15.195Z,6.95
2023-04-18T20:03:42.725Z,21.33
2023-04-18T20:06:09.867Z,13.80
2023-04-18T20:08:38.561Z,15.63
2023-04-18T20:11:10.347Z,25.05
2023-04-18T20:13:37.457Z,24.38
2023-04-18T20:16:06.557Z,17.65
2023-04-18T20:18:35.795Z,8.18
2023-04-18T20:21:03.754Z,8.70
2023-04-18T20:23:31.141Z,8.00
2023-04-18T20:25:57.987Z,7.10
2023-04-18T20:28:24.888Z,11.57
2023-04-18T20:30:52.049Z,14.77
2023-04-18T20:33:21.585Z,7.30
2023-04-18T20:35:48.393Z,7.55
2023-04-18T20:38:15.277Z,16.60
2023-04-18T20:40:45.780Z,6.63
2023-04-18T20:43:17.241Z,12.02
2023-04-18T20:45:44.211Z,12.23
2023-04-18T20:48:11.739Z,14.63
2023-04-18T20:50:40.060Z,12.88
2023-04-18T20:53:06.934Z,10.70
2023-04-18T20:55:34.360Z,12.32
2023-04-18T20:58:01.252Z,9.30
2023-04-18T21:00:28.580Z,9.82
2023-04-18T21:02:55.591Z,9.07
2023-04-18T21:05:22.712Z,8.52
2023-04-18T21:07:49.508Z,11.57
2023-04-18T21:10:16.400Z,10.07
2023-04-18T21:12:43.179Z,13.40
2023-04-18T21:15:10.503Z,7.82
2023-04-18T21:17:37.473Z,10.45
2023-04-18T21:20:06.435Z,11.38
2023-04-18T21:22:33.168Z,18.17
2023-04-18T21:25:03.355Z,8.95
2023-04-18T21:27:30.794Z,8.75
2023-04-18T21:30:04.034Z,8.25
2023-04-18T21:32:31.683Z,10.15
2023-04-18T21:34:58.493Z,9.43
2023-04-18T21:37:25.482Z,12.80
2023-04-18T21:39:52.293Z,9.23
2023-04-18T21:42:19.006Z,9.68
2023-04-18T21:44:45.865Z,7.80
2023-04-18T21:47:12.655Z,6.10
2023-04-18T21:53:16.385Z,14.43
2023-04-18T21:55:43.282Z,11.98
2023-04-18T21:58:10.116Z,14.82
2023-04-18T22:00:36.925Z,9.75
2023-04-18T22:03:03.872Z,8.50
2023-04-18T22:05:33.283Z,8.82
2023-04-18T22:08:00.177Z,8.63
2023-04-18T22:10:26.937Z,12.38
2023-04-18T22:12:57.537Z,7.47
2023-04-18T22:15:24.897Z,8.27
2023-04-18T22:17:51.753Z,9.18
2023-04-18T22:20:18.612Z,10.75
2023-04-18T22:22:45.724Z,7.47
2023-04-18T22:25:12.588Z,10.90
2023-04-18T22:27:39.627Z,9.95
2023-04-18T22:30:07.099Z,6.88
2023-04-18T22:32:34.049Z,11.63
2023-04-18T22:35:01.631Z,9.95
2023-04-18T22:37:28.434Z,11.57
2023-04-18T22:39:55.265Z,13.35
2023-04-18T22:42:21.993Z,9.30
2023-04-18T22:44:48.742Z,6.40
2023-04-18T22:47:15.512Z,9.27
2023-04-18T22:49:42.283Z,9.98
2023-04-18T22:52:09.167Z,7.40
2023-04-18T22:54:40.081Z,9.48
2023-04-18T22:57:07.004Z,10.35
2023-04-18T22:59:34.005Z,9.10
2023-04-18T23:02:01.263Z,11.25
2023-04-18T23:04:31.510Z,9.10
2023-04-18T23:06:58.460Z,11.85
2023-04-18T23:09:25.300Z,18.65
2023-04-18T23:11:52.123Z,9.32
2023-04-18T23:14:19.045Z,14.40
2023-04-18T23:16:45.838Z,10.57
2023-04-18T23:19:12.565Z,7.30
2023-04-18T23:21:39.325Z,15.02
2023-04-18T23:24:07.230Z,11.90
2023-04-18T23:26:34.073Z,9.15
2023-04-18T23:29:00.949Z,8.25
2023-04-18T23:31:27.799Z,5.97
2023-04-18T23:33:56.324Z,8.75
2023-04-18T23:36:23.256Z,7.60
2023-04-18T23:38:50.066Z,9.27
2023-04-18T23:41:16.841Z,7.82
2023-04-18T23:43:43.604Z,7.03
2023-04-18T23:46:12.053Z,8.43
2023-04-18T23:48:38.842Z,11.63
2023-04-18T23:51:05.858Z,14.18
2023-04-18T23:53:32.651Z,10.10
2023-04-18T23:55:59.567Z,13.07
2023-04-18T23:58:26.507Z,15.18
